createdAt,value
2022-11-04T00:02:15.373Z,8.00
2022-11-04T00:04:42.332Z,6.00
2022-11-04T00:07:29.152Z,5.00
2022-11-04T00:09:56.128Z,16.75
2022-11-04T00:12:25.993Z,12.25
2022-11-04T00:14:53.227Z,8.00
2022-11-04T00:17:20.367Z,8.75
2022-11-04T00:20:07.575Z,4.00
2022-11-04T00:22:54.202Z,5.00
2022-11-04T00:28:32.626Z,5.00
2022-11-04T00:31:21.259Z,5.00
2022-11-04T00:33:49.395Z,7.00
2022-11-04T00:36:16.639Z,10.00
2022-11-04T00:38:43.712Z,7.50
2022-11-04T00:41:26.757Z,4.00
2022-11-04T00:44:01.430Z,5.00
2022-11-04T00:46:30.991Z,7.00
2022-11-04T00:48:58.309Z,11.25
2022-11-04T00:51:25.511Z,15.25
2022-11-04T00:53:52.786Z,12.50
2022-11-04T00:56:19.771Z,14.25
2022-11-04T00:58:46.681Z,15.50
2022-11-04T01:01:19.082Z,14.50
2022-11-04T01:03:51.704Z,16.00
2022-11-04T01:06:20.246Z,13.00
2022-11-04T01:08:48.279Z,11.75
2022-11-04T01:11:16.217Z,5.00
2022-11-04T01:13:43.157Z,11.75
2022-11-04T01:16:11.721Z,10.25
2022-11-04T01:18:40.220Z,11.50
2022-11-04T01:21:09.134Z,13.50
2022-11-04T01:23:36.519Z,13.00
2022-11-04T01:26:07.813Z,11.75
2022-11-04T01:28:34.750Z,8.00
2022-11-04T01:31:10.458Z,9.75
2022-11-04T01:33:38.277Z,11.00
2022-11-04T01:36:06.868Z,8.25
2022-11-04T01:38:34.099Z,8.00
2022-11-04T01:41:01.367Z,10.50
2022-11-04T01:43:46.265Z,8.00
2022-11-04T01:46:33.331Z,5.00
2022-11-04T01:49:10.309Z,9.25
2022-11-04T01:51:40.885Z,7.00
2022-11-04T01:54:10.466Z,9.50
2022-11-04T01:56:39.070Z,12.25
2022-11-04T01:59:14.061Z,11.00
2022-11-04T02:01:41.087Z,10.25
2022-11-04T02:04:28.185Z,10.00
2022-11-04T02:07:19.895Z,16.00
2022-11-04T02:10:20.901Z,15.00
2022-11-04T02:13:08.588Z,12.50
2022-11-04T02:16:17.587Z,13.00
2022-11-04T02:19:10.059Z,10.00
2022-11-04T02:22:14.958Z,11.00
2022-11-04T02:25:23.828Z,10.00
2022-11-04T02:27:53.546Z,7.50
2022-11-04T02:30:22.039Z,8.00
2022-11-04T02:33:10.735Z,9.25
2022-11-04T02:35:41.859Z,9.75
2022-11-04T02:38:16.731Z,8.25
2022-11-04T02:40:57.442Z,6.25
2022-11-04T02:44:09.896Z,9.50
2022-11-04T02:47:16.872Z,14.00
2022-11-04T02:50:01.426Z,11.25
2022-11-04T02:52:33.239Z,14.50
2022-11-04T02:55:10.014Z,9.00
2022-11-04T02:57:40.557Z,8.25
2022-11-04T03:00:13.605Z,11.00
2022-11-04T03:02:54.500Z,11.00
2022-11-04T03:05:27.842Z,11.00
2022-11-04T03:07:58.225Z,10.75
2022-11-04T03:10:38.817Z,12.00
2022-11-04T03:13:15.108Z,11.50
2022-11-04T03:15:50.837Z,9.00
2022-11-04T03:18:25.075Z,6.50
2022-11-04T03:20:53.328Z,8.00
2022-11-04T03:23:20.438Z,5.75
2022-11-04T03:25:50.414Z,4.00
2022-11-04T03:28:51.057Z,7.00
2022-11-04T03:31:28.545Z,5.00
2022-11-04T03:33:57.844Z,3.00
2022-11-04T03:36:25.032Z,3.00
2022-11-04T03:38:53.726Z,2.75
2022-11-04T03:41:33.588Z,2.00
2022-11-04T03:44:00.577Z,2.00
2022-11-04T03:46:27.947Z,4.25
2022-11-04T03:48:56.223Z,5.00
2022-11-04T03:51:23.375Z,2.50
2022-11-04T03:53:50.528Z,2.00
2022-11-04T03:56:35.605Z,5.00
2022-11-04T03:59:25.518Z,5.00
2022-11-04T04:02:47.911Z,6.00
2022-11-04T04:05:24.011Z,3.00
2022-11-04T04:08:08.346Z,4.00
2022-11-04T04:11:03.529Z,2.00
2022-11-04T04:13:53.947Z,4.00
2022-11-04T04:16:34.865Z,2.25
2022-11-04T04:19:15.476Z,5.00
2022-11-04T04:21:59.324Z,6.50
2022-11-04T04:24:52.671Z,5.50
2022-11-04T04:27:32.007Z,4.00
2022-11-04T04:30:08.292Z,4.00
2022-11-04T04:32:44.896Z,2.00
2022-11-04T04:35:31.008Z,2.00
2022-11-04T04:38:21.657Z,3.00
2022-11-04T04:41:18.410Z,3.00
2022-11-04T04:44:04.358Z,4.00
2022-11-04T04:46:32.734Z,4.00
2022-11-04T04:49:07.126Z,6.50
2022-11-04T04:51:36.856Z,5.00
2022-11-04T04:54:03.917Z,4.00
2022-11-04T04:56:30.839Z,4.00
2022-11-04T04:58:57.801Z,3.00
2022-11-04T05:01:24.833Z,4.50
2022-11-04T05:03:51.854Z,4.00
2022-11-04T05:06:18.754Z,5.00
2022-11-04T05:08:45.776Z,8.00
2022-11-04T05:11:13.533Z,9.75
2022-11-04T05:13:40.616Z,9.00
2022-11-04T05:16:10.736Z,9.75
2022-11-04T05:18:37.712Z,9.00
2022-11-04T05:21:06.704Z,10.00
2022-11-04T05:23:34.950Z,7.50
2022-11-04T05:26:02.289Z,8.50
2022-11-04T05:28:29.432Z,8.50
2022-11-04T05:30:56.776Z,11.00
2022-11-04T05:33:23.726Z,12.00
2022-11-04T05:35:50.633Z,27.75
2022-11-04T05:38:17.670Z,14.00
2022-11-04T05:40:44.622Z,13.00
2022-11-04T05:43:12.159Z,8.00
2022-11-04T05:45:39.116Z,8.00
2022-11-04T05:48:06.402Z,7.75
2022-11-04T05:50:34.757Z,9.00
2022-11-04T05:53:02.081Z,8.00
2022-11-04T05:55:29.161Z,9.50
2022-11-04T05:57:58.159Z,10.00
2022-11-04T06:00:27.391Z,7.50
2022-11-04T06:02:57.490Z,10.00
2022-11-04T06:05:25.661Z,9.25
2022-11-04T06:07:52.583Z,9.00
2022-11-04T06:10:19.507Z,5.00
2022-11-04T06:12:46.482Z,5.00
2022-11-04T06:15:13.523Z,8.00
2022-11-04T06:17:40.442Z,7.25
2022-11-04T06:20:08.018Z,8.50
2022-11-04T06:22:34.888Z,7.50
2022-11-04T06:25:01.781Z,10.50
2022-11-04T06:27:29.693Z,8.75
2022-11-04T06:29:56.909Z,9.00
2022-11-04T06:32:23.754Z,7.75
2022-11-04T06:34:50.831Z,9.00
2022-11-04T06:37:17.709Z,7.75
2022-11-04T06:39:45.744Z,2.75
2022-11-04T06:42:12.584Z,5.00
2022-11-04T06:44:39.632Z,4.50
2022-11-04T06:47:07.507Z,4.00
2022-11-04T06:49:34.773Z,4.00
2022-11-04T06:52:02.833Z,1.75
2022-11-04T06:54:29.747Z,2.00
2022-11-04T06:56:56.835Z,2.75
2022-11-04T06:59:24.276Z,2.00
2022-11-04T07:01:52.390Z,1.00
2022-11-04T07:04:19.735Z,2.50
2022-11-04T07:06:46.804Z,1.00
2022-11-04T07:09:16.343Z,4.00
2022-11-04T07:11:44.737Z,1.00
2022-11-04T07:14:12.485Z,2.75
2022-11-04T07:16:39.498Z,1.75
2022-11-04T07:19:06.983Z,1.00
2022-11-04T07:21:33.877Z,3.00
2022-11-04T07:24:02.091Z,2.00
2022-11-04T07:26:29.264Z,2.75
2022-11-04T07:28:56.329Z,3.00
2022-11-04T07:31:23.970Z,3.00
2022-11-04T07:33:51.683Z,3.00
2022-11-04T07:36:19.506Z,0.00
2022-11-04T07:38:46.947Z,2.00
2022-11-04T07:41:15.324Z,3.25
2022-11-04T07:43:42.247Z,3.00
2022-11-04T07:46:12.118Z,4.00
2022-11-04T07:48:39.380Z,2.00
2022-11-04T07:51:08.749Z,4.00
2022-11-04T07:53:36.179Z,2.00
2022-11-04T07:56:08.059Z,1.25
2022-11-04T07:58:35.367Z,1.50
2022-11-04T08:01:08.007Z,0.00
2022-11-04T08:03:35.620Z,1.25
2022-11-04T08:06:04.956Z,1.00
2022-11-04T08:08:32.490Z,0.75
2022-11-04T08:11:02.377Z,2.00
2022-11-04T08:13:34.659Z,2.00
2022-11-04T08:16:07.192Z,2.00
2022-11-04T08:18:34.452Z,1.00
2022-11-04T08:21:02.806Z,3.00
2022-11-04T08:23:30.297Z,5.50
2022-11-04T08:25:57.711Z,2.00
2022-11-04T08:28:25.549Z,2.25
2022-11-04T08:31:07.574Z,2.00
2022-11-04T08:33:36.422Z,1.00
2022-11-04T08:36:09.870Z,1.25
2022-11-04T08:38:37.313Z,1.00
2022-11-04T08:41:06.773Z,2.00
2022-11-04T08:43:35.189Z,1.00
2022-11-04T08:46:04.718Z,1.25
2022-11-04T08:48:31.809Z,2.00
2022-11-04T08:50:59.815Z,3.00
2022-11-04T08:53:26.803Z,4.00
2022-11-04T08:55:54.204Z,6.00
2022-11-04T08:58:23.243Z,6.50
2022-11-04T09:00:50.249Z,4.75
2022-11-04T09:03:18.221Z,2.75
2022-11-04T09:05:47.490Z,2.00
2022-11-04T09:08:17.012Z,1.75
2022-11-04T09:10:45.884Z,1.00
2022-11-04T09:13:13.795Z,2.00
2022-11-04T09:15:40.895Z,1.00
2022-11-04T09:18:08.116Z,1.00
2022-11-04T09:20:38.661Z,2.00
2022-11-04T09:23:06.721Z,2.00
2022-11-04T09:25:34.220Z,1.00
2022-11-04T09:28:01.171Z,0.50
2022-11-04T09:30:28.409Z,2.00
2022-11-04T09:32:55.252Z,1.00
2022-11-04T09:35:22.162Z,1.00
2022-11-04T09:37:50.739Z,1.75
2022-11-04T09:40:20.897Z,2.00
2022-11-04T09:43:15.501Z,1.00
2022-11-04T09:45:44.226Z,4.00
2022-11-04T09:48:28.717Z,3.00
2022-11-04T09:50:59.365Z,2.50
2022-11-04T09:53:48.256Z,3.00
2022-11-04T09:56:22.582Z,2.00
2022-11-04T09:58:51.535Z,1.00
2022-11-04T10:01:18.518Z,2.00
2022-11-04T10:04:05.746Z,3.00
2022-11-04T10:06:54.457Z,2.00
2022-11-04T10:09:24.168Z,2.67
2022-11-04T10:12:16.279Z,1.00
2022-11-04T10:14:54.540Z,1.00
2022-11-04T10:17:42.325Z,1.00
2022-11-04T10:20:24.214Z,2.00
2022-11-04T10:23:19.028Z,1.00
2022-11-04T10:25:50.151Z,2.00
2022-11-04T10:28:19.951Z,2.33
2022-11-04T10:30:52.444Z,1.00
2022-11-04T10:33:22.095Z,1.67
2022-11-04T10:35:54.116Z,1.00
2022-11-04T10:38:44.678Z,1.67
2022-11-04T10:41:38.925Z,2.00
2022-11-04T10:44:22.666Z,3.75
2022-11-04T10:47:02.588Z,3.00
2022-11-04T10:50:06.717Z,2.75
2022-11-04T10:52:36.385Z,4.75
2022-11-04T10:55:03.413Z,8.75
2022-11-04T10:57:31.156Z,9.00
2022-11-04T11:00:03.962Z,8.00
2022-11-04T11:02:36.913Z,10.50
2022-11-04T11:05:18.763Z,9.00
2022-11-04T11:07:47.657Z,8.75
2022-11-04T11:10:21.935Z,6.00
2022-11-04T11:12:57.082Z,13.00
2022-11-04T11:16:04.146Z,12.25
2022-11-04T11:18:31.035Z,15.25
2022-11-04T11:21:11.018Z,10.00
2022-11-04T11:23:47.667Z,9.00
2022-11-04T11:26:29.591Z,7.00
2022-11-04T11:29:02.372Z,9.00
2022-11-04T11:31:38.297Z,9.00
2022-11-04T11:34:19.177Z,14.00
2022-11-04T11:36:48.320Z,11.50
2022-11-04T11:39:19.653Z,11.75
2022-11-04T11:42:06.692Z,8.00
2022-11-04T11:44:38.766Z,6.00
2022-11-04T11:47:18.619Z,6.00
2022-11-04T11:49:45.727Z,8.25
2022-11-04T11:52:30.745Z,7.00
2022-11-04T11:55:16.816Z,6.00
2022-11-04T12:01:23.993Z,4.50
2022-11-04T12:10:48.617Z,3.00
2022-11-04T12:13:37.227Z,2.00
2022-11-04T12:16:29.995Z,3.33
2022-11-04T12:19:10.193Z,2.00
2022-11-04T12:22:09.342Z,2.00
2022-11-04T12:24:36.261Z,2.00
2022-11-04T12:27:07.917Z,2.00
2022-11-04T12:30:02.549Z,5.00
2022-11-04T12:32:47.942Z,5.00
2022-11-04T12:35:47.683Z,5.00
2022-11-04T12:38:41.994Z,6.75
2022-11-04T12:41:37.896Z,4.00
2022-11-04T12:44:28.885Z,2.33
2022-11-04T12:47:07.418Z,2.00
2022-11-04T12:50:17.328Z,1.00
2022-11-04T12:53:49.008Z,4.50
2022-11-04T12:56:20.923Z,4.00
2022-11-04T12:59:22.190Z,5.25
2022-11-04T13:01:56.843Z,4.00
2022-11-04T13:04:59.163Z,2.75
2022-11-04T13:07:40.379Z,2.75
2022-11-04T13:10:23.298Z,1.00
2022-11-04T13:12:55.722Z,4.00
2022-11-04T13:15:29.244Z,5.00
2022-11-04T13:18:05.407Z,4.50
2022-11-04T13:20:43.597Z,5.00
2022-11-04T13:23:19.150Z,5.00
2022-11-04T13:25:48.378Z,6.00
2022-11-04T13:28:21.736Z,7.00
2022-11-04T13:31:03.808Z,4.25
2022-11-04T13:33:56.904Z,6.50
2022-11-04T13:36:42.040Z,5.25
2022-11-04T13:39:50.766Z,6.25
2022-11-04T13:42:42.719Z,2.00
2022-11-04T13:45:15.215Z,5.50
2022-11-04T13:47:55.832Z,7.00
2022-11-04T13:50:34.268Z,9.00
2022-11-04T13:53:02.349Z,6.00
2022-11-04T13:55:29.585Z,5.00
2022-11-04T13:58:02.676Z,3.50
2022-11-04T14:00:31.759Z,5.50
2022-11-04T14:03:00.486Z,6.00
2022-11-04T14:05:31.327Z,7.25
2022-11-04T14:08:01.327Z,5.00
2022-11-04T14:10:50.107Z,9.25
2022-11-04T14:13:32.810Z,7.75
2022-11-04T14:16:18.117Z,4.00
2022-11-04T14:18:47.541Z,3.00
2022-11-04T14:21:25.963Z,2.00
2022-11-04T14:23:56.774Z,3.75
2022-11-04T14:26:47.710Z,5.00
2022-11-04T14:29:25.481Z,4.00
2022-11-04T14:31:55.070Z,2.00
2022-11-04T14:34:31.119Z,2.00
2022-11-04T14:37:21.874Z,1.75
2022-11-04T14:39:57.018Z,3.00
2022-11-04T14:42:52.766Z,6.50
2022-11-04T14:45:40.132Z,5.25
2022-11-04T14:48:18.519Z,5.00
2022-11-04T14:50:49.277Z,6.25
2022-11-04T14:53:34.373Z,5.00
2022-11-04T14:56:06.314Z,3.00
2022-11-04T14:58:33.257Z,6.00
2022-11-04T15:01:02.780Z,5.75
2022-11-04T15:06:40.773Z,4.00
2022-11-04T15:09:23.425Z,2.00
2022-11-04T15:12:09.044Z,4.00
2022-11-04T15:14:37.943Z,5.25
2022-11-04T15:17:04.881Z,6.00
2022-11-04T15:19:36.249Z,5.00
2022-11-04T15:22:06.266Z,5.00
2022-11-04T15:24:35.421Z,12.00
2022-11-04T15:27:06.741Z,9.75
2022-11-04T15:29:33.761Z,9.25
2022-11-04T15:32:05.100Z,6.25
2022-11-04T15:34:33.985Z,5.50
2022-11-04T15:37:06.147Z,3.75
2022-11-04T15:39:43.681Z,5.00
2022-11-04T15:42:40.799Z,6.75
2022-11-04T15:45:22.879Z,7.50
2022-11-04T15:48:25.105Z,14.25
2022-11-04T15:51:13.794Z,16.00
2022-11-04T15:53:53.679Z,8.00
2022-11-04T15:56:32.205Z,15.00
2022-11-04T15:59:00.691Z,14.00
2022-11-04T16:01:29.431Z,11.75
2022-11-04T16:03:59.510Z,8.00
2022-11-04T16:06:42.618Z,9.50
2022-11-04T16:09:27.473Z,17.50
2022-11-04T16:12:13.832Z,22.25
2022-11-04T16:14:55.154Z,13.75
2022-11-04T16:17:23.615Z,8.75
2022-11-04T16:20:01.819Z,7.00
2022-11-04T16:22:32.697Z,24.75
2022-11-04T16:25:03.258Z,13.25
2022-11-04T16:27:33.674Z,15.50
2022-11-04T16:30:18.741Z,10.00
2022-11-04T16:32:51.210Z,10.50
2022-11-04T16:35:26.665Z,12.00
2022-11-04T16:37:56.157Z,6.00
2022-11-04T16:40:24.603Z,11.25
2022-11-04T16:42:53.059Z,13.00
2022-11-04T16:45:30.571Z,17.75
2022-11-04T16:47:57.757Z,14.25
2022-11-04T16:50:25.409Z,11.00
2022-11-04T16:52:52.833Z,7.75
2022-11-04T16:55:22.785Z,4.25
2022-11-04T16:58:00.429Z,7.50
2022-11-04T17:00:28.732Z,7.25
2022-11-04T17:02:55.785Z,0.00
2022-11-04T17:05:22.982Z,5.00
2022-11-04T17:07:56.467Z,4.00
2022-11-04T17:10:27.116Z,3.25
2022-11-04T17:12:54.374Z,5.00
2022-11-04T17:15:21.794Z,5.25
2022-11-04T17:17:48.726Z,4.00
2022-11-04T17:20:18.134Z,3.00
2022-11-04T17:22:47.205Z,2.50
2022-11-04T17:25:22.704Z,2.50
2022-11-04T17:27:49.833Z,4.25
2022-11-04T17:30:18.400Z,5.00
2022-11-04T17:32:46.234Z,4.00
2022-11-04T17:35:14.241Z,4.00
2022-11-04T17:37:41.208Z,6.25
2022-11-04T17:40:17.732Z,13.75
2022-11-04T17:43:08.342Z,16.00
2022-11-04T17:45:38.308Z,9.50
2022-11-04T17:48:06.007Z,14.25
2022-11-04T17:50:33.948Z,9.00
2022-11-04T17:53:00.819Z,7.25
2022-11-04T17:55:28.005Z,6.50
2022-11-04T17:57:55.662Z,13.00
2022-11-04T18:00:26.081Z,7.25
2022-11-04T18:02:53.061Z,10.25
2022-11-04T18:05:20.532Z,20.00
2022-11-04T18:07:47.453Z,22.00
2022-11-04T18:10:14.318Z,21.00
2022-11-04T18:12:41.840Z,24.25
2022-11-04T18:15:12.111Z,27.75
2022-11-04T18:17:43.237Z,28.75
2022-11-04T18:20:15.572Z,26.00
2022-11-04T18:22:43.441Z,23.75
2022-11-04T18:25:11.660Z,22.50
2022-11-04T18:27:38.887Z,36.50
2022-11-04T18:30:06.529Z,26.75
2022-11-04T18:32:33.792Z,25.25
2022-11-04T18:35:01.197Z,27.00
2022-11-04T18:37:31.736Z,26.00
2022-11-04T18:39:59.877Z,12.75
2022-11-04T18:42:28.760Z,26.25
2022-11-04T18:44:55.879Z,24.00
2022-11-04T18:47:23.993Z,22.00
2022-11-04T18:49:51.077Z,22.00
2022-11-04T18:52:18.357Z,24.25
2022-11-04T18:54:45.687Z,20.75
2022-11-04T18:57:13.174Z,22.75
2022-11-04T18:59:41.472Z,18.50
2022-11-04T19:02:23.749Z,21.00
2022-11-04T19:04:51.845Z,21.00
2022-11-04T19:07:19.180Z,9.75
2022-11-04T19:09:47.804Z,20.00
2022-11-04T19:12:34.287Z,18.00
2022-11-04T19:15:01.246Z,14.50
2022-11-04T19:17:28.158Z,11.50
2022-11-04T19:19:55.572Z,12.00
2022-11-04T19:22:23.031Z,10.50
2022-11-04T19:24:50.117Z,11.50
2022-11-04T19:27:19.737Z,10.00
2022-11-04T19:29:47.083Z,11.00
2022-11-04T19:32:14.737Z,15.00
2022-11-04T19:34:43.444Z,11.75
2022-11-04T19:37:11.314Z,12.00
2022-11-04T19:39:38.771Z,10.00
2022-11-04T19:42:24.907Z,11.00
2022-11-04T19:44:51.893Z,9.75
2022-11-04T19:47:18.873Z,11.00
2022-11-04T19:49:45.987Z,11.25
2022-11-04T19:52:12.904Z,13.00
2022-11-04T19:54:40.273Z,8.00
2022-11-04T19:57:07.322Z,11.75
2022-11-04T19:59:34.294Z,15.50
2022-11-04T20:02:01.352Z,14.25
2022-11-04T20:04:28.482Z,16.25
2022-11-04T20:06:55.711Z,12.00
2022-11-04T20:09:22.762Z,7.25
2022-11-04T20:12:08.269Z,11.00
2022-11-04T20:14:35.334Z,12.00
2022-11-04T20:17:03.073Z,21.50
2022-11-04T20:19:30.095Z,20.00
2022-11-04T20:21:57.005Z,12.50
2022-11-04T20:24:25.543Z,11.00
2022-11-04T20:26:53.186Z,7.75
2022-11-04T20:29:20.331Z,7.00
2022-11-04T20:31:47.310Z,4.00
2022-11-04T20:34:15.101Z,5.00
2022-11-04T20:36:42.890Z,5.00
2022-11-04T20:39:15.327Z,6.00
2022-11-04T20:41:43.853Z,3.75
2022-11-04T20:44:12.634Z,4.00
2022-11-04T20:46:40.197Z,6.00
2022-11-04T20:49:07.674Z,7.50
2022-11-04T20:51:38.928Z,6.00
2022-11-04T20:54:07.340Z,7.00
2022-11-04T20:56:36.452Z,4.00
2022-11-04T20:59:04.578Z,7.50
2022-11-04T21:01:34.143Z,10.00
2022-11-04T21:04:03.841Z,6.25
2022-11-04T21:06:31.956Z,13.25
2022-11-04T21:09:01.016Z,9.25
2022-11-04T21:11:31.801Z,12.00
2022-11-04T21:13:59.745Z,19.75
2022-11-04T21:16:26.848Z,17.50
2022-11-04T21:18:54.943Z,14.00
2022-11-04T21:21:21.890Z,12.50
2022-11-04T21:23:49.541Z,10.00
2022-11-04T21:26:21.705Z,12.00
2022-11-04T21:28:53.140Z,7.75
2022-11-04T21:31:20.076Z,6.00
2022-11-04T21:33:47.557Z,9.00
2022-11-04T21:36:15.447Z,9.75
2022-11-04T21:38:43.084Z,10.00
2022-11-04T21:41:16.585Z,5.00
2022-11-04T21:43:43.786Z,7.00
2022-11-04T21:46:13.868Z,11.50
2022-11-04T21:48:42.382Z,15.25
2022-11-04T21:51:11.279Z,13.25
2022-11-04T21:53:38.657Z,11.00
2022-11-04T21:56:15.478Z,9.25
2022-11-04T21:58:43.649Z,11.00
2022-11-04T22:01:15.372Z,5.50
2022-11-04T22:03:43.338Z,7.75
2022-11-04T22:06:14.158Z,9.00
2022-11-04T22:08:48.584Z,15.00
2022-11-04T22:11:18.715Z,9.25
2022-11-04T22:13:46.489Z,6.00
2022-11-04T22:16:18.854Z,6.50
2022-11-04T22:18:46.752Z,0.00
2022-11-04T22:21:16.020Z,13.25
2022-11-04T22:23:44.469Z,12.00
2022-11-04T22:26:18.431Z,7.25
2022-11-04T22:28:45.766Z,10.00
2022-11-04T22:31:21.380Z,7.25
2022-11-04T22:33:49.605Z,5.00
2022-11-04T22:36:17.494Z,19.25
2022-11-04T22:38:44.491Z,12.75
2022-11-04T22:41:14.276Z,9.75
2022-11-04T22:43:41.268Z,10.50
2022-11-04T22:46:35.441Z,10.00
2022-11-04T22:49:02.309Z,9.00
2022-11-04T22:51:31.547Z,7.50
2022-11-04T22:54:03.109Z,4.50
2022-11-04T22:56:33.911Z,3.25
2022-11-04T22:59:01.708Z,4.75
2022-11-04T23:01:28.984Z,5.75
2022-11-04T23:03:55.975Z,5.25
2022-11-04T23:06:23.146Z,3.00
2022-11-04T23:08:52.133Z,3.00
2022-11-04T23:11:44.591Z,3.00
2022-11-04T23:14:32.920Z,3.50
2022-11-04T23:17:19.021Z,4.25
2022-11-04T23:19:46.015Z,7.00
2022-11-04T23:22:31.445Z,6.00
2022-11-04T23:25:07.292Z,4.75
2022-11-04T23:28:07.102Z,4.00
2022-11-04T23:30:42.138Z,5.75
2022-11-04T23:33:11.839Z,6.00
2022-11-04T23:36:00.367Z,6.00
2022-11-04T23:38:29.650Z,5.00
2022-11-04T23:41:18.289Z,12.25
2022-11-04T23:43:45.474Z,13.00
2022-11-04T23:46:31.407Z,10.50
2022-11-04T23:49:07.409Z,10.00
2022-11-04T23:51:53.079Z,10.00
2022-11-04T23:54:38.598Z,4.00
2022-11-04T23:57:30.357Z,10.50
